sensor_id;sensor_type;location;lat;lon;timestamp;temperature;humidity
30304;DHT22;17112;48.636;10.152;2023-01-28T00:02:06;2.80;71.60
30304;DHT22;17112;48.636;10.152;2023-01-28T00:04:32;2.80;71.60
30304;DHT22;17112;48.636;10.152;2023-01-28T00:06:57;3.00;71.80
30304;DHT22;17112;48.636;10.152;2023-01-28T00:09:23;2.80;71.70
30304;DHT22;17112;48.636;10.152;2023-01-28T00:11:49;2.80;71.60
30304;DHT22;17112;48.636;10.152;2023-01-28T00:14:14;2.80;71.60
30304;DHT22;17112;48.636;10.152;2023-01-28T00:16:40;3.00;71.60
30304;DHT22;17112;48.636;10.152;2023-01-28T00:19:06;2.80;71.50
30304;DHT22;17112;48.636;10.152;2023-01-28T00:21:31;2.80;71.50
30304;DHT22;17112;48.636;10.152;2023-01-28T00:23:57;2.80;71.60
30304;DHT22;17112;48.636;10.152;2023-01-28T00:26:23;2.80;71.70
30304;DHT22;17112;48.636;10.152;2023-01-28T00:28:49;2.90;71.70
30304;DHT22;17112;48.636;10.152;2023-01-28T00:31:22;2.90;71.80
30304;DHT22;17112;48.636;10.152;2023-01-28T00:33:50;2.80;71.70
30304;DHT22;17112;48.636;10.152;2023-01-28T00:36:17;2.70;71.60
30304;DHT22;17112;48.636;10.152;2023-01-28T00:38:55;2.70;71.70
30304;DHT22;17112;48.636;10.152;2023-01-28T00:41:23;2.70;71.80
30304;DHT22;17112;48.636;10.152;2023-01-28T00:43:49;3.10;72.10
30304;DHT22;17112;48.636;10.152;2023-01-28T00:46:15;2.80;71.90
30304;DHT22;17112;48.636;10.152;2023-01-28T00:48:42;2.70;71.80
30304;DHT22;17112;48.636;10.152;2023-01-28T00:51:11;2.70;71.90
30304;DHT22;17112;48.636;10.152;2023-01-28T00:53:37;2.70;72.00
30304;DHT22;17112;48.636;10.152;2023-01-28T00:56:05;2.70;72.00
30304;DHT22;17112;48.636;10.152;2023-01-28T00:58:32;2.70;72.20
30304;DHT22;17112;48.636;10.152;2023-01-28T01:01:06;2.70;72.30
30304;DHT22;17112;48.636;10.152;2023-01-28T01:03:32;2.70;72.30
30304;DHT22;17112;48.636;10.152;2023-01-28T01:05:58;2.70;72.10
30304;DHT22;17112;48.636;10.152;2023-01-28T01:08:24;2.70;72.10
30304;DHT22;17112;48.636;10.152;2023-01-28T01:10:59;2.70;72.00
30304;DHT22;17112;48.636;10.152;2023-01-28T01:13:25;2.70;72.00
30304;DHT22;17112;48.636;10.152;2023-01-28T01:16:00;3.10;72.20
30304;DHT22;17112;48.636;10.152;2023-01-28T01:18:26;2.80;72.20
30304;DHT22;17112;48.636;10.152;2023-01-28T01:20:52;2.80;72.10
30304;DHT22;17112;48.636;10.152;2023-01-28T01:23:26;2.90;72.10
30304;DHT22;17112;48.636;10.152;2023-01-28T01:25:52;2.80;72.00
30304;DHT22;17112;48.636;10.152;2023-01-28T01:28:18;2.70;72.00
30304;DHT22;17112;48.636;10.152;2023-01-28T01:30:45;2.70;72.00
30304;DHT22;17112;48.636;10.152;2023-01-28T01:33:11;2.80;72.10
30304;DHT22;17112;48.636;10.152;2023-01-28T01:35:36;2.70;71.90
30304;DHT22;17112;48.636;10.152;2023-01-28T01:38:02;2.70;71.90
30304;DHT22;17112;48.636;10.152;2023-01-28T01:40:28;2.70;71.90
30304;DHT22;17112;48.636;10.152;2023-01-28T01:42:54;2.70;72.00
30304;DHT22;17112;48.636;10.152;2023-01-28T01:45:20;2.70;72.00
30304;DHT22;17112;48.636;10.152;2023-01-28T01:52:57;2.70;71.90
30304;DHT22;17112;48.636;10.152;2023-01-28T01:55:28;2.70;71.80
30304;DHT22;17112;48.636;10.152;2023-01-28T01:57:56;2.70;71.80
30304;DHT22;17112;48.636;10.152;2023-01-28T02:00:23;2.70;71.80
30304;DHT22;17112;48.636;10.152;2023-01-28T02:02:50;2.70;71.80
30304;DHT22;17112;48.636;10.152;2023-01-28T02:05:19;2.70;71.80
30304;DHT22;17112;48.636;10.152;2023-01-28T02:07:48;3.00;72.00
30304;DHT22;17112;48.636;10.152;2023-01-28T02:10:15;2.70;71.80
30304;DHT22;17112;48.636;10.152;2023-01-28T02:12:52;2.70;71.80
30304;DHT22;17112;48.636;10.152;2023-01-28T02:15:23;2.70;71.90
30304;DHT22;17112;48.636;10.152;2023-01-28T02:17:49;2.70;71.90
30304;DHT22;17112;48.636;10.152;2023-01-28T02:20:23;2.70;71.90
30304;DHT22;17112;48.636;10.152;2023-01-28T02:28:45;2.70;72.10
30304;DHT22;17112;48.636;10.152;2023-01-28T02:31:28;2.70;72.00
30304;DHT22;17112;48.636;10.152;2023-01-28T02:34:07;2.70;72.10
30304;DHT22;17112;48.636;10.152;2023-01-28T02:39:12;2.80;72.10
30304;DHT22;17112;48.636;10.152;2023-01-28T02:41:56;2.80;72.10
30304;DHT22;17112;48.636;10.152;2023-01-28T02:44:23;2.80;72.10
30304;DHT22;17112;48.636;10.152;2023-01-28T02:46:51;2.90;72.10
30304;DHT22;17112;48.636;10.152;2023-01-28T02:49:41;2.90;72.20
30304;DHT22;17112;48.636;10.152;2023-01-28T02:55:08;2.90;72.00
30304;DHT22;17112;48.636;10.152;2023-01-28T03:00:43;2.90;71.70
30304;DHT22;17112;48.636;10.152;2023-01-28T03:03:14;2.90;71.60
30304;DHT22;17112;48.636;10.152;2023-01-28T03:05:46;2.90;71.60
30304;DHT22;17112;48.636;10.152;2023-01-28T03:08:32;2.90;71.50
30304;DHT22;17112;48.636;10.152;2023-01-28T03:11:17;2.90;71.60
30304;DHT22;17112;48.636;10.152;2023-01-28T03:14:03;3.10;71.70
30304;DHT22;17112;48.636;10.152;2023-01-28T03:16:49;2.90;71.60
30304;DHT22;17112;48.636;10.152;2023-01-28T03:19:35;3.20;71.80
30304;DHT22;17112;48.636;10.152;2023-01-28T03:22:19;2.80;71.70
30304;DHT22;17112;48.636;10.152;2023-01-28T03:25:05;2.80;71.70
30304;DHT22;17112;48.636;10.152;2023-01-28T03:27:59;2.80;71.80
30304;DHT22;17112;48.636;10.152;2023-01-28T03:31:07;2.80;71.90
30304;DHT22;17112;48.636;10.152;2023-01-28T03:33:53;2.80;71.90
30304;DHT22;17112;48.636;10.152;2023-01-28T03:36:39;2.80;71.70
30304;DHT22;17112;48.636;10.152;2023-01-28T03:39:19;2.80;71.90
30304;DHT22;17112;48.636;10.152;2023-01-28T03:42:07;2.80;71.90
30304;DHT22;17112;48.636;10.152;2023-01-28T03:44:33;2.80;71.90
30304;DHT22;17112;48.636;10.152;2023-01-28T03:47:22;2.80;72.60
30304;DHT22;17112;48.636;10.152;2023-01-28T03:49:52;2.90;71.90
30304;DHT22;17112;48.636;10.152;2023-01-28T03:52:20;2.90;71.90
30304;DHT22;17112;48.636;10.152;2023-01-28T03:54:46;3.10;72.10
30304;DHT22;17112;48.636;10.152;2023-01-28T03:57:16;2.90;71.80
30304;DHT22;17112;48.636;10.152;2023-01-28T03:59:43;2.90;71.80
30304;DHT22;17112;48.636;10.152;2023-01-28T04:02:09;2.90;71.80
30304;DHT22;17112;48.636;10.152;2023-01-28T04:04:38;2.90;71.80
30304;DHT22;17112;48.636;10.152;2023-01-28T04:07:05;2.90;71.80
30304;DHT22;17112;48.636;10.152;2023-01-28T04:09:33;3.00;71.80
30304;DHT22;17112;48.636;10.152;2023-01-28T04:12:00;2.90;71.80
30304;DHT22;17112;48.636;10.152;2023-01-28T04:14:25;2.90;71.80
30304;DHT22;17112;48.636;10.152;2023-01-28T04:16:51;3.30;72.00
30304;DHT22;17112;48.636;10.152;2023-01-28T04:19:19;2.90;71.80
30304;DHT22;17112;48.636;10.152;2023-01-28T04:21:45;2.90;71.80
30304;DHT22;17112;48.636;10.152;2023-01-28T04:24:12;2.90;71.90
30304;DHT22;17112;48.636;10.152;2023-01-28T04:26:37;2.90;71.80
30304;DHT22;17112;48.636;10.152;2023-01-28T04:29:03;2.90;71.80
30304;DHT22;17112;48.636;10.152;2023-01-28T04:31:29;3.00;71.90
30304;DHT22;17112;48.636;10.152;2023-01-28T04:33:55;3.00;71.90
30304;DHT22;17112;48.636;10.152;2023-01-28T04:36:21;3.00;71.90
30304;DHT22;17112;48.636;10.152;2023-01-28T04:38:46;3.30;72.10
30304;DHT22;17112;48.636;10.152;2023-01-28T04:41:12;3.10;71.90
30304;DHT22;17112;48.636;10.152;2023-01-28T04:43:38;3.00;71.90
30304;DHT22;17112;48.636;10.152;2023-01-28T04:46:04;3.20;72.00
30304;DHT22;17112;48.636;10.152;2023-01-28T04:48:30;3.10;71.80
30304;DHT22;17112;48.636;10.152;2023-01-28T04:50:56;3.10;71.60
30304;DHT22;17112;48.636;10.152;2023-01-28T04:53:22;3.10;71.60
30304;DHT22;17112;48.636;10.152;2023-01-28T04:55:47;3.10;71.70
30304;DHT22;17112;48.636;10.152;2023-01-28T04:58:13;3.10;71.50
30304;DHT22;17112;48.636;10.152;2023-01-28T05:00:39;3.10;71.40
30304;DHT22;17112;48.636;10.152;2023-01-28T05:03:05;3.10;71.50
30304;DHT22;17112;48.636;10.152;2023-01-28T05:05:30;3.10;71.50
30304;DHT22;17112;48.636;10.152;2023-01-28T05:07:57;3.10;71.50
30304;DHT22;17112;48.636;10.152;2023-01-28T05:10:24;3.10;71.50
30304;DHT22;17112;48.636;10.152;2023-01-28T05:12:50;3.20;71.60
30304;DHT22;17112;48.636;10.152;2023-01-28T05:15:16;3.10;71.50
30304;DHT22;17112;48.636;10.152;2023-01-28T05:17:42;3.10;71.40
30304;DHT22;17112;48.636;10.152;2023-01-28T05:20:10;3.10;71.50
30304;DHT22;17112;48.636;10.152;2023-01-28T05:22:35;3.10;71.50
30304;DHT22;17112;48.636;10.152;2023-01-28T05:25:01;3.10;71.40
30304;DHT22;17112;48.636;10.152;2023-01-28T05:27:29;3.20;71.40
30304;DHT22;17112;48.636;10.152;2023-01-28T05:29:55;3.40;71.60
30304;DHT22;17112;48.636;10.152;2023-01-28T05:32:21;3.10;71.50
30304;DHT22;17112;48.636;10.152;2023-01-28T05:34:46;3.00;71.40
30304;DHT22;17112;48.636;10.152;2023-01-28T05:37:12;3.00;71.40
30304;DHT22;17112;48.636;10.152;2023-01-28T05:39:38;3.00;71.50
30304;DHT22;17112;48.636;10.152;2023-01-28T05:42:03;3.00;71.40
30304;DHT22;17112;48.636;10.152;2023-01-28T05:44:29;3.00;71.40
30304;DHT22;17112;48.636;10.152;2023-01-28T05:46:55;3.00;71.40
30304;DHT22;17112;48.636;10.152;2023-01-28T05:49:20;3.00;71.50
30304;DHT22;17112;48.636;10.152;2023-01-28T05:51:46;3.00;71.40
30304;DHT22;17112;48.636;10.152;2023-01-28T05:54:13;3.10;71.50
30304;DHT22;17112;48.636;10.152;2023-01-28T05:56:39;3.10;71.60
30304;DHT22;17112;48.636;10.152;2023-01-28T05:59:05;3.30;71.80
30304;DHT22;17112;48.636;10.152;2023-01-28T06:01:31;3.10;71.60
30304;DHT22;17112;48.636;10.152;2023-01-28T06:03:57;3.10;71.60
30304;DHT22;17112;48.636;10.152;2023-01-28T06:06:23;3.30;71.80
30304;DHT22;17112;48.636;10.152;2023-01-28T06:08:49;3.10;71.50
30304;DHT22;17112;48.636;10.152;2023-01-28T06:11:15;3.10;71.50
30304;DHT22;17112;48.636;10.152;2023-01-28T06:13:40;3.20;71.40
30304;DHT22;17112;48.636;10.152;2023-01-28T06:16:07;3.20;71.40
30304;DHT22;17112;48.636;10.152;2023-01-28T06:18:33;3.20;71.20
30304;DHT22;17112;48.636;10.152;2023-01-28T06:20:58;3.20;71.20
30304;DHT22;17112;48.636;10.152;2023-01-28T06:23:24;3.40;71.20
30304;DHT22;17112;48.636;10.152;2023-01-28T06:25:56;3.20;71.20
30304;DHT22;17112;48.636;10.152;2023-01-28T06:28:22;3.30;71.40
30304;DHT22;17112;48.636;10.152;2023-01-28T06:30:49;3.10;71.40
30304;DHT22;17112;48.636;10.152;2023-01-28T06:33:16;3.10;71.40
30304;DHT22;17112;48.636;10.152;2023-01-28T06:35:42;3.20;71.40
30304;DHT22;17112;48.636;10.152;2023-01-28T06:38:07;3.10;71.30
30304;DHT22;17112;48.636;10.152;2023-01-28T06:40:33;3.30;71.30
30304;DHT22;17112;48.636;10.152;2023-01-28T06:42:58;3.20;71.20
30304;DHT22;17112;48.636;10.152;2023-01-28T06:45:25;3.40;71.40
30304;DHT22;17112;48.636;10.152;2023-01-28T06:47:50;3.10;71.30
30304;DHT22;17112;48.636;10.152;2023-01-28T06:50:16;3.10;71.30
30304;DHT22;17112;48.636;10.152;2023-01-28T06:52:42;3.10;71.30
30304;DHT22;17112;48.636;10.152;2023-01-28T06:55:08;3.10;71.20
30304;DHT22;17112;48.636;10.152;2023-01-28T06:57:39;3.30;71.30
30304;DHT22;17112;48.636;10.152;2023-01-28T07:00:07;3.10;71.30
30304;DHT22;17112;48.636;10.152;2023-01-28T07:02:35;3.10;71.20
30304;DHT22;17112;48.636;10.152;2023-01-28T07:05:01;3.10;71.10
30304;DHT22;17112;48.636;10.152;2023-01-28T07:07:27;3.10;71.20
30304;DHT22;17112;48.636;10.152;2023-01-28T07:09:52;3.10;71.30
30304;DHT22;17112;48.636;10.152;2023-01-28T07:12:18;3.10;71.30
30304;DHT22;17112;48.636;10.152;2023-01-28T07:14:44;3.40;71.50
30304;DHT22;17112;48.636;10.152;2023-01-28T07:17:09;3.10;71.50
30304;DHT22;17112;48.636;10.152;2023-01-28T07:19:35;3.10;71.60
30304;DHT22;17112;48.636;10.152;2023-01-28T07:22:01;3.10;71.50
30304;DHT22;17112;48.636;10.152;2023-01-28T07:24:28;3.10;71.40
30304;DHT22;17112;48.636;10.152;2023-01-28T07:26:54;3.20;71.60
30304;DHT22;17112;48.636;10.152;2023-01-28T07:29:19;3.20;71.40
30304;DHT22;17112;48.636;10.152;2023-01-28T07:31:45;3.20;71.30
30304;DHT22;17112;48.636;10.152;2023-01-28T07:34:11;3.20;71.40
30304;DHT22;17112;48.636;10.152;2023-01-28T07:36:37;3.20;71.40
30304;DHT22;17112;48.636;10.152;2023-01-28T07:39:03;3.20;71.40
30304;DHT22;17112;48.636;10.152;2023-01-28T07:41:29;3.20;71.40
30304;DHT22;17112;48.636;10.152;2023-01-28T07:43:55;3.20;71.30
30304;DHT22;17112;48.636;10.152;2023-01-28T07:46:20;3.20;71.20
30304;DHT22;17112;48.636;10.152;2023-01-28T07:48:46;3.20;71.20
30304;DHT22;17112;48.636;10.152;2023-01-28T07:51:12;3.20;71.20
30304;DHT22;17112;48.636;10.152;2023-01-28T07:53:38;3.20;71.20
30304;DHT22;17112;48.636;10.152;2023-01-28T07:56:04;3.20;71.20
30304;DHT22;17112;48.636;10.152;2023-01-28T07:58:30;3.20;71.20
30304;DHT22;17112;48.636;10.152;2023-01-28T08:00:59;3.20;71.20
30304;DHT22;17112;48.636;10.152;2023-01-28T08:03:26;3.30;71.30
30304;DHT22;17112;48.636;10.152;2023-01-28T08:05:53;3.20;71.30
30304;DHT22;17112;48.636;10.152;2023-01-28T08:08:21;3.20;71.40
30304;DHT22;17112;48.636;10.152;2023-01-28T08:10:47;3.20;71.40
30304;DHT22;17112;48.636;10.152;2023-01-28T08:13:14;3.30;71.40
30304;DHT22;17112;48.636;10.152;2023-01-28T08:15:40;3.30;71.30
30304;DHT22;17112;48.636;10.152;2023-01-28T08:18:07;3.30;71.40
30304;DHT22;17112;48.636;10.152;2023-01-28T08:20:34;3.30;71.20
30304;DHT22;17112;48.636;10.152;2023-01-28T08:23:08;3.40;71.20
30304;DHT22;17112;48.636;10.152;2023-01-28T08:25:35;3.40;71.20
30304;DHT22;17112;48.636;10.152;2023-01-28T08:28:02;3.40;71.20
30304;DHT22;17112;48.636;10.152;2023-01-28T08:30:28;3.40;71.10
30304;DHT22;17112;48.636;10.152;2023-01-28T08:32:55;3.40;71.00
30304;DHT22;17112;48.636;10.152;2023-01-28T08:35:23;3.40;71.00
30304;DHT22;17112;48.636;10.152;2023-01-28T08:37:48;3.50;71.10
30304;DHT22;17112;48.636;10.152;2023-01-28T08:40:14;3.50;71.00
30304;DHT22;17112;48.636;10.152;2023-01-28T08:42:48;3.50;70.90
30304;DHT22;17112;48.636;10.152;2023-01-28T08:45:14;3.50;70.90
30304;DHT22;17112;48.636;10.152;2023-01-28T08:47:57;3.50;71.00
30304;DHT22;17112;48.636;10.152;2023-01-28T08:50:24;3.50;71.10
30304;DHT22;17112;48.636;10.152;2023-01-28T08:53:04;3.60;71.10
30304;DHT22;17112;48.636;10.152;2023-01-28T08:55:32;3.60;71.00
30304;DHT22;17112;48.636;10.152;2023-01-28T08:58:04;3.60;71.10
30304;DHT22;17112;48.636;10.152;2023-01-28T09:00:31;3.70;71.10
30304;DHT22;17112;48.636;10.152;2023-01-28T09:02:57;3.70;70.80
30304;DHT22;17112;48.636;10.152;2023-01-28T09:05:22;3.70;70.70
30304;DHT22;17112;48.636;10.152;2023-01-28T09:07:48;3.80;70.70
30304;DHT22;17112;48.636;10.152;2023-01-28T09:10:14;3.80;70.60
30304;DHT22;17112;48.636;10.152;2023-01-28T09:12:41;3.80;70.70
30304;DHT22;17112;48.636;10.152;2023-01-28T09:15:07;3.80;70.80
30304;DHT22;17112;48.636;10.152;2023-01-28T09:17:33;3.90;70.90
30304;DHT22;17112;48.636;10.152;2023-01-28T09:19:59;3.90;70.80
30304;DHT22;17112;48.636;10.152;2023-01-28T09:22:24;4.00;70.80
30304;DHT22;17112;48.636;10.152;2023-01-28T09:24:50;4.00;70.60
30304;DHT22;17112;48.636;10.152;2023-01-28T09:27:16;4.10;70.40
30304;DHT22;17112;48.636;10.152;2023-01-28T09:29:42;4.10;70.10
30304;DHT22;17112;48.636;10.152;2023-01-28T09:32:07;4.10;70.10
30304;DHT22;17112;48.636;10.152;2023-01-28T09:34:33;4.20;70.00
30304;DHT22;17112;48.636;10.152;2023-01-28T09:36:59;4.20;70.10
30304;DHT22;17112;48.636;10.152;2023-01-28T09:39:25;4.20;70.00
30304;DHT22;17112;48.636;10.152;2023-01-28T09:47:39;4.30;69.40
30304;DHT22;17112;48.636;10.152;2023-01-28T09:50:17;4.30;69.20
30304;DHT22;17112;48.636;10.152;2023-01-28T09:52:44;4.30;69.20
30304;DHT22;17112;48.636;10.152;2023-01-28T09:55:37;4.30;69.40
30304;DHT22;17112;48.636;10.152;2023-01-28T09:58:07;4.30;69.20
30304;DHT22;17112;48.636;10.152;2023-01-28T10:00:47;4.30;69.10
30304;DHT22;17112;48.636;10.152;2023-01-28T10:03:36;4.40;69.10
30304;DHT22;17112;48.636;10.152;2023-01-28T10:16:37;4.40;69.10
30304;DHT22;17112;48.636;10.152;2023-01-28T10:19:22;4.50;69.20
30304;DHT22;17112;48.636;10.152;2023-01-28T10:21:56;4.50;69.00
30304;DHT22;17112;48.636;10.152;2023-01-28T10:24:35;4.50;68.90
30304;DHT22;17112;48.636;10.152;2023-01-28T10:27:13;4.60;68.30
30304;DHT22;17112;48.636;10.152;2023-01-28T10:29:39;4.60;67.90
30304;DHT22;17112;48.636;10.152;2023-01-28T10:34:50;4.60;68.30
30304;DHT22;17112;48.636;10.152;2023-01-28T10:37:16;4.60;68.50
30304;DHT22;17112;48.636;10.152;2023-01-28T10:39:43;4.60;68.40
30304;DHT22;17112;48.636;10.152;2023-01-28T10:42:30;4.70;68.80
30304;DHT22;17112;48.636;10.152;2023-01-28T10:50:30;4.80;68.30
30304;DHT22;17112;48.636;10.152;2023-01-28T10:52:58;4.90;68.30
30304;DHT22;17112;48.636;10.152;2023-01-28T10:58:28;4.90;66.90
30304;DHT22;17112;48.636;10.152;2023-01-28T11:01:05;5.00;66.40
30304;DHT22;17112;48.636;10.152;2023-01-28T11:03:31;5.00;66.70
30304;DHT22;17112;48.636;10.152;2023-01-28T11:06:00;4.90;67.00
30304;DHT22;17112;48.636;10.152;2023-01-28T11:08:28;4.90;66.80
30304;DHT22;17112;48.636;10.152;2023-01-28T11:10:57;4.90;67.40
30304;DHT22;17112;48.636;10.152;2023-01-28T11:13:24;4.90;67.60
30304;DHT22;17112;48.636;10.152;2023-01-28T11:16:15;5.00;67.60
30304;DHT22;17112;48.636;10.152;2023-01-28T11:18:53;5.00;66.50
30304;DHT22;17112;48.636;10.152;2023-01-28T11:21:25;5.10;67.10
30304;DHT22;17112;48.636;10.152;2023-01-28T11:23:55;5.10;67.50
30304;DHT22;17112;48.636;10.152;2023-01-28T11:26:24;5.20;67.70
30304;DHT22;17112;48.636;10.152;2023-01-28T11:28:51;5.20;67.70
30304;DHT22;17112;48.636;10.152;2023-01-28T11:31:18;5.30;67.40
30304;DHT22;17112;48.636;10.152;2023-01-28T11:33:47;5.40;67.30
30304;DHT22;17112;48.636;10.152;2023-01-28T11:36:16;5.50;67.10
30304;DHT22;17112;48.636;10.152;2023-01-28T11:38:53;5.50;67.00
30304;DHT22;17112;48.636;10.152;2023-01-28T11:41:34;5.60;67.10
30304;DHT22;17112;48.636;10.152;2023-01-28T11:49:36;5.70;66.30
30304;DHT22;17112;48.636;10.152;2023-01-28T11:52:42;5.80;66.60
30304;DHT22;17112;48.636;10.152;2023-01-28T12:06:18;6.10;66.40
30304;DHT22;17112;48.636;10.152;2023-01-28T12:14:42;6.10;65.70
30304;DHT22;17112;48.636;10.152;2023-01-28T12:17:54;6.10;65.90
30304;DHT22;17112;48.636;10.152;2023-01-28T12:25:20;5.90;65.70
30304;DHT22;17112;48.636;10.152;2023-01-28T12:27:50;5.90;64.70
30304;DHT22;17112;48.636;10.152;2023-01-28T12:46:24;5.60;65.30
30304;DHT22;17112;48.636;10.152;2023-01-28T12:51:57;5.50;65.00
30304;DHT22;17112;48.636;10.152;2023-01-28T12:54:38;5.50;64.50
30304;DHT22;17112;48.636;10.152;2023-01-28T12:57:07;5.40;64.50
30304;DHT22;17112;48.636;10.152;2023-01-28T12:59:44;5.30;65.00
30304;DHT22;17112;48.636;10.152;2023-01-28T13:10:18;5.20;64.80
30304;DHT22;17112;48.636;10.152;2023-01-28T13:12:47;5.10;64.90
30304;DHT22;17112;48.636;10.152;2023-01-28T13:15:16;5.10;65.80
30304;DHT22;17112;48.636;10.152;2023-01-28T13:17:55;5.10;66.00
30304;DHT22;17112;48.636;10.152;2023-01-28T13:20:45;5.10;65.50
30304;DHT22;17112;48.636;10.152;2023-01-28T13:28:51;5.20;66.10
30304;DHT22;17112;48.636;10.152;2023-01-28T13:31:22;5.20;66.20
30304;DHT22;17112;48.636;10.152;2023-01-28T13:34:00;5.20;66.30
30304;DHT22;17112;48.636;10.152;2023-01-28T13:41:47;5.20;65.20
30304;DHT22;17112;48.636;10.152;2023-01-28T13:46:45;5.10;65.90
30304;DHT22;17112;48.636;10.152;2023-01-28T13:49:41;5.10;66.00
30304;DHT22;17112;48.636;10.152;2023-01-28T13:52:12;5.10;65.60
30304;DHT22;17112;48.636;10.152;2023-01-28T13:54:52;5.00;66.10
30304;DHT22;17112;48.636;10.152;2023-01-28T14:08:37;4.90;66.40
30304;DHT22;17112;48.636;10.152;2023-01-28T14:16:39;4.80;66.90
30304;DHT22;17112;48.636;10.152;2023-01-28T14:19:10;4.90;67.20
30304;DHT22;17112;48.636;10.152;2023-01-28T14:21:38;4.90;67.30
30304;DHT22;17112;48.636;10.152;2023-01-28T14:24:04;4.90;67.20
30304;DHT22;17112;48.636;10.152;2023-01-28T14:26:45;4.90;67.00
30304;DHT22;17112;48.636;10.152;2023-01-28T14:29:40;4.90;67.00
30304;DHT22;17112;48.636;10.152;2023-01-28T14:32:17;4.90;67.00
30304;DHT22;17112;48.636;10.152;2023-01-28T14:34:44;4.90;67.10
30304;DHT22;17112;48.636;10.152;2023-01-28T14:37:14;4.90;67.20
30304;DHT22;17112;48.636;10.152;2023-01-28T14:39:47;4.90;67.20
30304;DHT22;17112;48.636;10.152;2023-01-28T14:42:22;4.90;67.20
30304;DHT22;17112;48.636;10.152;2023-01-28T14:47:50;4.90;67.30
30304;DHT22;17112;48.636;10.152;2023-01-28T14:55:48;4.90;67.50
30304;DHT22;17112;48.636;10.152;2023-01-28T14:58:28;4.90;67.40
30304;DHT22;17112;48.636;10.152;2023-01-28T15:00:58;4.90;67.40
30304;DHT22;17112;48.636;10.152;2023-01-28T15:03:25;4.90;67.40
30304;DHT22;17112;48.636;10.152;2023-01-28T15:06:14;4.80;67.40
30304;DHT22;17112;48.636;10.152;2023-01-28T15:08:40;4.80;67.70
30304;DHT22;17112;48.636;10.152;2023-01-28T15:11:09;4.80;67.70
30304;DHT22;17112;48.636;10.152;2023-01-28T15:13:44;4.70;67.70
30304;DHT22;17112;48.636;10.152;2023-01-28T15:16:24;4.70;67.80
30304;DHT22;17112;48.636;10.152;2023-01-28T15:18:54;4.70;67.90
30304;DHT22;17112;48.636;10.152;2023-01-28T15:21:23;4.60;67.90
30304;DHT22;17112;48.636;10.152;2023-01-28T15:23:52;4.60;68.10
30304;DHT22;17112;48.636;10.152;2023-01-28T15:26:21;4.60;68.00
30304;DHT22;17112;48.636;10.152;2023-01-28T15:28:49;4.50;68.10
30304;DHT22;17112;48.636;10.152;2023-01-28T15:31:32;4.50;68.20
30304;DHT22;17112;48.636;10.152;2023-01-28T15:34:10;4.50;68.40
30304;DHT22;17112;48.636;10.152;2023-01-28T15:36:36;4.50;68.40
30304;DHT22;17112;48.636;10.152;2023-01-28T15:39:02;4.50;68.50
30304;DHT22;17112;48.636;10.152;2023-01-28T15:41:32;4.50;68.60
30304;DHT22;17112;48.636;10.152;2023-01-28T15:43:59;4.50;68.70
30304;DHT22;17112;48.636;10.152;2023-01-28T15:46:25;4.50;68.70
30304;DHT22;17112;48.636;10.152;2023-01-28T15:49:02;4.50;68.70
30304;DHT22;17112;48.636;10.152;2023-01-28T15:51:30;4.50;68.60
30304;DHT22;17112;48.636;10.152;2023-01-28T15:54:03;4.50;68.60
30304;DHT22;17112;48.636;10.152;2023-01-28T15:56:30;4.50;68.60
30304;DHT22;17112;48.636;10.152;2023-01-28T15:59:07;4.50;68.50
30304;DHT22;17112;48.636;10.152;2023-01-28T16:01:33;4.50;68.60
30304;DHT22;17112;48.636;10.152;2023-01-28T16:04:04;4.50;68.50
30304;DHT22;17112;48.636;10.152;2023-01-28T16:06:36;4.50;68.60
30304;DHT22;17112;48.636;10.152;2023-01-28T16:12:11;4.50;68.80
30304;DHT22;17112;48.636;10.152;2023-01-28T16:14:58;4.50;68.80
30304;DHT22;17112;48.636;10.152;2023-01-28T16:17:30;4.40;68.50
30304;DHT22;17112;48.636;10.152;2023-01-28T16:20:01;4.40;68.50
30304;DHT22;17112;48.636;10.152;2023-01-28T16:22:38;4.40;68.40
30304;DHT22;17112;48.636;10.152;2023-01-28T16:27:45;4.30;68.50
30304;DHT22;17112;48.636;10.152;2023-01-28T16:30:11;4.30;68.50
30304;DHT22;17112;48.636;10.152;2023-01-28T16:32:38;4.30;68.70
30304;DHT22;17112;48.636;10.152;2023-01-28T16:35:16;4.30;68.90
30304;DHT22;17112;48.636;10.152;2023-01-28T16:37:43;4.30;69.10
30304;DHT22;17112;48.636;10.152;2023-01-28T16:40:11;4.30;69.80
30304;DHT22;17112;48.636;10.152;2023-01-28T16:42:37;4.30;69.00
30304;DHT22;17112;48.636;10.152;2023-01-28T16:45:03;4.30;69.10
30304;DHT22;17112;48.636;10.152;2023-01-28T16:47:29;4.30;69.20
30304;DHT22;17112;48.636;10.152;2023-01-28T16:49:55;4.30;69.20
30304;DHT22;17112;48.636;10.152;2023-01-28T16:52:20;4.30;69.20
30304;DHT22;17112;48.636;10.152;2023-01-28T16:54:46;4.30;69.20
30304;DHT22;17112;48.636;10.152;2023-01-28T16:57:17;4.30;69.20
30304;DHT22;17112;48.636;10.152;2023-01-28T16:59:44;4.30;69.30
30304;DHT22;17112;48.636;10.152;2023-01-28T17:02:14;4.30;69.20
30304;DHT22;17112;48.636;10.152;2023-01-28T17:04:40;4.30;69.20
30304;DHT22;17112;48.636;10.152;2023-01-28T17:07:06;4.30;69.20
30304;DHT22;17112;48.636;10.152;2023-01-28T17:09:33;4.30;69.20
30304;DHT22;17112;48.636;10.152;2023-01-28T17:11:58;4.30;69.20
30304;DHT22;17112;48.636;10.152;2023-01-28T17:14:24;4.30;69.20
30304;DHT22;17112;48.636;10.152;2023-01-28T17:16:50;4.30;69.30
30304;DHT22;17112;48.636;10.152;2023-01-28T17:19:16;4.30;69.30
30304;DHT22;17112;48.636;10.152;2023-01-28T17:21:42;4.40;69.30
30304;DHT22;17112;48.636;10.152;2023-01-28T17:24:08;4.40;69.30
30304;DHT22;17112;48.636;10.152;2023-01-28T17:26:34;4.40;69.20
30304;DHT22;17112;48.636;10.152;2023-01-28T17:29:01;4.40;69.10
30304;DHT22;17112;48.636;10.152;2023-01-28T17:31:27;4.40;69.10
30304;DHT22;17112;48.636;10.152;2023-01-28T17:33:54;4.40;69.00
30304;DHT22;17112;48.636;10.152;2023-01-28T17:36:20;4.30;68.80
30304;DHT22;17112;48.636;10.152;2023-01-28T17:38:46;4.30;68.80
30304;DHT22;17112;48.636;10.152;2023-01-28T17:41:13;4.30;68.90
30304;DHT22;17112;48.636;10.152;2023-01-28T17:43:39;4.30;69.00
30304;DHT22;17112;48.636;10.152;2023-01-28T17:46:12;4.30;69.00
30304;DHT22;17112;48.636;10.152;2023-01-28T17:48:39;4.30;68.90
30304;DHT22;17112;48.636;10.152;2023-01-28T17:51:05;4.30;68.90
30304;DHT22;17112;48.636;10.152;2023-01-28T17:53:31;4.30;68.90
30304;DHT22;17112;48.636;10.152;2023-01-28T17:55:57;4.30;68.90
30304;DHT22;17112;48.636;10.152;2023-01-28T17:58:23;4.30;69.00
30304;DHT22;17112;48.636;10.152;2023-01-28T18:00:49;4.20;68.90
30304;DHT22;17112;48.636;10.152;2023-01-28T18:03:15;4.20;68.90
30304;DHT22;17112;48.636;10.152;2023-01-28T18:05:41;4.20;69.10
30304;DHT22;17112;48.636;10.152;2023-01-28T18:08:07;4.20;69.10
30304;DHT22;17112;48.636;10.152;2023-01-28T18:10:33;4.20;69.10
30304;DHT22;17112;48.636;10.152;2023-01-28T18:12:59;4.30;69.10